Time;durP1;ratioP1;P1;durP2;ratioP2;P2;SDS_P1;SDS_P2;PMS_P1;PMS_P2;Temp;Humidity;BMP_temperature;BMP_pressure;BME280_temperature;BME280_humidity;BME280_pressure;Samples;Min_cycle;Max_cycle;Signal;HPM_P1;HPM_P2
2022/10/24 00:00:31;;;;;;;20.17;12.73;;;;;;;17.18;79.82;100222.31;4484181;31;33908;-78
2022/10/24 00:02:58;;;;;;;19.83;12.77;;;;;;;17.10;80.24;100217.75;4479136;31;34461;-79
2022/10/24 00:05:26;;;;;;;20.05;13.43;;;;;;;16.89;81.60;100217.22;4480807;31;33301;-79
2022/10/24 00:07:53;;;;;;;23.75;13.70;;;;;;;17.09;80.79;100221.25;4482431;31;33522;-79
2022/10/24 00:10:21;;;;;;;21.83;13.05;;;;;;;16.79;81.82;100223.91;4474144;31;34478;-79
2022/10/24 00:12:49;;;;;;;20.37;13.10;;;;;;;16.58;83.12;100224.22;4474474;31;33620;-78
2022/10/24 00:15:16;;;;;;;23.80;14.30;;;;;;;16.66;82.91;100216.59;4479868;32;31846;-78
2022/10/24 00:17:43;;;;;;;20.08;12.90;;;;;;;16.93;81.39;100211.22;4486207;31;33995;-79
2022/10/24 00:20:11;;;;;;;20.67;13.10;;;;;;;17.05;80.93;100216.75;4486604;31;34503;-79
2022/10/24 00:22:39;;;;;;;20.75;13.02;;;;;;;17.03;81.07;100218.44;4489758;31;33685;-79
2022/10/24 00:25:06;;;;;;;20.10;13.38;;;;;;;17.11;80.17;100216.03;4491045;31;34142;-78
2022/10/24 00:27:35;;;;;;;22.08;14.27;;;;;;;17.19;79.76;100218.81;4483062;31;34131;-78
2022/10/24 00:30:04;;;;;;;22.40;13.80;;;;;;;17.12;80.12;100222.16;4482662;31;33458;-78
2022/10/24 00:32:32;;;;;;;22.10;14.00;;;;;;;17.01;80.78;100214.03;4482520;31;34452;-79
2022/10/24 00:34:59;;;;;;;21.65;14.32;;;;;;;16.62;82.66;100206.87;4478624;31;34249;-78
2022/10/24 00:37:26;;;;;;;23.80;13.60;;;;;;;16.65;82.85;100207.84;4479391;31;33751;-79
2022/10/24 00:39:54;;;;;;;22.92;13.82;;;;;;;17.04;80.82;100204.53;4479935;31;33533;-78
2022/10/24 00:42:21;;;;;;;23.48;14.85;;;;;;;16.70;82.36;100194.88;4480933;31;34840;-79
2022/10/24 00:44:51;;;;;;;21.33;14.65;;;;;;;16.85;81.55;100197.94;4480485;31;33730;-79
2022/10/24 00:47:23;;;;;;;23.75;14.23;;;;;;;17.00;80.72;100199.19;4484415;31;33992;-79
2022/10/24 00:50:11;;;;;;;22.45;14.63;;;;;;;17.02;80.61;100198.38;4479709;31;33650;-78
2022/10/24 00:52:44;;;;;;;24.05;14.20;;;;;;;17.43;78.92;100198.47;4484201;31;34680;-79
2022/10/24 00:55:12;;;;;;;21.50;14.27;;;;;;;17.13;80.25;100201.25;4476294;32;33592;-79
2022/10/24 00:57:50;;;;;;;23.87;15.05;;;;;;;16.95;80.95;100198.19;4475984;31;34518;-79
2022/10/24 01:00:20;;;;;;;25.12;15.00;;;;;;;16.69;82.20;100190.53;4477873;32;33657;-79
2022/10/24 01:02:48;;;;;;;26.05;14.50;;;;;;;16.75;82.38;100195.03;4480780;31;34585;-79
2022/10/24 01:05:18;;;;;;;24.60;15.18;;;;;;;16.51;83.05;100196.13;4484045;31;34449;-79
2022/10/24 01:07:51;;;;;;;21.90;14.27;;;;;;;16.22;84.81;100193.59;4473000;31;33640;-78
2022/10/24 01:10:39;;;;;;;22.45;15.10;;;;;;;16.33;83.88;100201.75;4481027;31;33913;-79
2022/10/24 01:13:25;;;;;;;22.50;14.75;;;;;;;16.53;83.48;100183.97;4475019;31;33669;-79
2022/10/24 01:16:01;;;;;;;24.58;15.45;;;;;;;16.57;82.83;100177.97;4481606;31;33399;-78
2022/10/24 01:18:33;;;;;;;26.23;15.80;;;;;;;16.36;83.78;100191.38;4477775;31;33274;-78
2022/10/24 01:21:23;;;;;;;22.73;14.57;;;;;;;16.48;83.50;100181.25;4478464;32;33972;-78
2022/10/24 01:24:31;;;;;;;25.40;14.93;;;;;;;16.28;84.29;100188.56;4485997;31;33851;-78
2022/10/24 01:27:29;;;;;;;24.02;15.35;;;;;;;16.23;84.72;100195.38;4489062;31;33691;-79
2022/10/24 01:30:09;;;;;;;23.30;14.95;;;;;;;16.35;83.62;100199.19;4472643;31;34017;-79
2022/10/24 01:32:44;;;;;;;26.73;15.55;;;;;;;16.17;84.63;100205.66;4471823;32;33906;-79
2022/10/24 01:35:35;;;;;;;22.60;15.05;;;;;;;16.13;84.48;100209.03;4470050;32;34587;-78
2022/10/24 01:38:18;;;;;;;26.15;15.60;;;;;;;16.62;82.28;100205.16;4479579;31;34537;-78
2022/10/24 01:40:51;;;;;;;24.37;15.30;;;;;;;16.38;82.84;100199.25;4474692;31;34018;-78
2022/10/24 01:43:26;;;;;;;25.65;14.95;;;;;;;16.35;82.93;100186.97;4487289;31;33886;-79
2022/10/24 01:46:07;;;;;;;26.85;14.52;;;;;;;16.35;83.19;100193.94;4472473;31;34409;-78
2022/10/24 01:48:39;;;;;;;26.02;15.63;;;;;;;16.62;82.23;100184.22;4482201;31;33494;-78
2022/10/24 01:51:07;;;;;;;25.77;14.98;;;;;;;16.33;83.59;100190.41;4469457;32;34105;-78
2022/10/24 01:53:35;;;;;;;23.58;14.80;;;;;;;16.39;82.93;100191.44;4469142;32;34704;-79
2022/10/24 01:56:02;;;;;;;29.17;15.05;;;;;;;16.48;82.27;100177.75;4475584;31;34453;-78
2022/10/24 01:58:30;;;;;;;23.25;14.30;;;;;;;16.34;83.25;100181.72;4475683;31;33429;-78
2022/10/24 02:00:59;;;;;;;24.83;15.43;;;;;;;16.50;82.34;100179.56;4477850;32;33881;-79
2022/10/24 02:03:38;;;;;;;23.98;14.80;;;;;;;16.62;81.41;100184.22;4471254;32;34896;-78
2022/10/24 02:06:12;;;;;;;26.15;14.87;;;;;;;16.24;83.47;100165.75;4478498;31;34232;-79
2022/10/24 02:08:43;;;;;;;22.48;14.10;;;;;;;16.23;83.46;100164.00;4465699;32;32878;-79
2022/10/24 02:11:11;;;;;;;22.37;14.77;;;;;;;16.34;82.79;100160.78;4473543;31;34717;-79
2022/10/24 02:13:44;;;;;;;23.77;14.65;;;;;;;16.18;83.29;100155.16;4482702;31;34615;-78
2022/10/24 02:16:15;;;;;;;23.42;14.07;;;;;;;16.09;84.00;100160.13;4474588;31;33670;-79
2022/10/24 02:18:43;;;;;;;22.67;14.32;;;;;;;16.26;82.80;100148.44;4481945;31;33433;-78
2022/10/24 02:21:27;;;;;;;22.40;13.93;;;;;;;16.25;82.42;100151.00;4494932;31;33750;-78
2022/10/24 02:23:57;;;;;;;24.87;15.05;;;;;;;15.86;84.94;100138.59;4477922;31;34013;-79
2022/10/24 02:26:31;;;;;;;24.42;14.38;;;;;;;15.97;84.42;100149.31;4476727;31;34313;-79
2022/10/24 02:29:02;;;;;;;22.33;14.45;;;;;;;15.96;84.52;100147.56;4491746;31;33110;-79
2022/10/24 02:31:39;;;;;;;27.55;15.32;;;;;;;16.04;84.42;100146.94;4482059;31;33808;-79
2022/10/24 02:34:08;;;;;;;22.40;14.23;;;;;;;15.97;84.19;100159.78;4482402;31;33442;-78
2022/10/24 02:36:36;;;;;;;24.20;14.27;;;;;;;15.88;84.69;100163.03;4479909;31;33866;-80
2022/10/24 02:39:05;;;;;;;22.62;14.73;;;;;;;15.91;84.32;100153.50;4472965;31;33451;-79
2022/10/24 02:41:35;;;;;;;23.42;14.07;;;;;;;15.88;84.61;100150.84;4478922;31;34239;-78
2022/10/24 02:44:03;;;;;;;23.58;14.30;;;;;;;15.75;85.05;100151.31;4480276;31;33877;-79
2022/10/24 02:46:31;;;;;;;22.87;14.00;;;;;;;16.01;84.48;100156.41;4476839;31;33786;-79
2022/10/24 02:49:00;;;;;;;26.15;14.85;;;;;;;15.83;84.82;100157.62;4473209;32;33278;-78
2022/10/24 02:51:30;;;;;;;21.80;13.68;;;;;;;15.82;84.82;100161.12;4470281;31;33825;-79
2022/10/24 02:53:59;;;;;;;22.40;14.00;;;;;;;15.95;84.11;100171.91;4482558;31;34768;-78
2022/10/24 02:56:27;;;;;;;20.73;13.32;;;;;;;16.33;82.44;100172.09;4483481;31;33647;-79
2022/10/24 02:58:54;;;;;;;21.33;13.50;;;;;;;16.21;82.75;100159.59;4483092;31;33374;-79
2022/10/24 03:01:22;;;;;;;22.30;13.55;;;;;;;16.29;82.39;100153.72;4471423;31;34359;-79
2022/10/24 03:03:50;;;;;;;22.52;14.40;;;;;;;16.23;82.48;100158.78;4478023;31;34518;-79
2022/10/24 03:06:17;;;;;;;23.12;13.32;;;;;;;16.00;83.17;100133.75;4485640;31;34640;-79
2022/10/24 03:08:45;;;;;;;23.20;14.65;;;;;;;16.14;82.92;100137.62;4479307;31;34071;-79
2022/10/24 03:11:12;;;;;;;23.00;13.90;;;;;;;15.94;84.12;100138.81;4481641;31;34666;-79
2022/10/24 03:13:39;;;;;;;21.23;13.35;;;;;;;15.47;86.44;100136.50;4470963;32;34518;-78
2022/10/24 03:16:07;;;;;;;21.15;14.05;;;;;;;15.82;84.51;100119.31;4489118;31;33836;-79
2022/10/24 03:18:40;;;;;;;23.38;14.10;;;;;;;15.69;85.31;100123.25;4485654;31;33420;-78
2022/10/24 03:21:07;;;;;;;23.05;14.40;;;;;;;15.79;85.01;100124.44;4483036;31;33949;-80
2022/10/24 03:23:35;;;;;;;20.75;13.18;;;;;;;15.81;84.51;100121.87;4483509;31;34535;-78
2022/10/24 03:26:02;;;;;;;22.58;14.05;;;;;;;15.63;85.49;100116.97;4490132;31;33357;-78
2022/10/24 03:28:30;;;;;;;23.73;14.32;;;;;;;15.68;85.17;100124.13;4482329;31;34160;-78
2022/10/24 03:30:57;;;;;;;24.52;14.23;;;;;;;15.54;86.02;100128.91;4480414;31;34718;-79
2022/10/24 03:33:24;;;;;;;25.58;14.43;;;;;;;15.56;85.83;100130.69;4487895;31;33851;-78
2022/10/24 03:35:53;;;;;;;24.42;14.80;;;;;;;15.65;85.69;100134.47;4482857;31;34483;-79
2022/10/24 03:38:21;;;;;;;24.52;14.98;;;;;;;15.81;84.67;100138.44;4489473;31;34277;-78
2022/10/24 03:40:49;;;;;;;26.58;14.85;;;;;;;15.94;83.76;100136.19;4486989;31;34411;-78
2022/10/24 03:43:17;;;;;;;25.00;14.35;;;;;;;15.66;85.04;100138.81;4483763;31;34064;-78
2022/10/24 03:45:45;;;;;;;22.17;13.65;;;;;;;15.54;85.66;100138.47;4474456;31;33536;-79
2022/10/24 03:48:13;;;;;;;23.20;14.40;;;;;;;16.01;83.62;100136.41;4480644;31;33481;-79
2022/10/24 03:50:40;;;;;;;22.13;14.95;;;;;;;15.63;85.24;100137.88;4488798;31;33385;-78
2022/10/24 03:53:08;;;;;;;23.42;13.65;;;;;;;15.79;84.55;100139.25;4479607;31;33673;-79
2022/10/24 03:55:35;;;;;;;21.10;13.40;;;;;;;16.16;82.46;100145.50;4483941;31;33472;-78
2022/10/24 03:58:03;;;;;;;21.35;14.15;;;;;;;16.24;81.89;100142.25;4491335;31;34085;-79
2022/10/24 04:00:33;;;;;;;23.35;14.45;;;;;;;16.06;82.54;100144.34;4475543;31;33765;-78
2022/10/24 04:03:01;;;;;;;27.23;15.02;;;;;;;15.86;83.81;100152.53;4484860;31;33586;-78
2022/10/24 04:05:28;;;;;;;25.48;15.57;;;;;;;15.85;84.01;100152.47;4476682;31;34745;-77
2022/10/24 04:07:55;;;;;;;27.77;16.60;;;;;;;16.23;81.86;100158.78;4485731;31;34241;-80
2022/10/24 04:10:23;;;;;;;23.98;15.30;;;;;;;16.02;82.69;100152.97;4487538;31;32322;-80
2022/10/24 04:12:50;;;;;;;28.08;15.52;;;;;;;15.99;82.78;100158.09;4485909;31;34688;-79
2022/10/24 04:15:18;;;;;;;25.10;13.90;;;;;;;16.26;81.39;100164.09;4474355;31;34639;-78
2022/10/24 04:17:45;;;;;;;25.12;15.32;;;;;;;16.10;82.00;100151.44;4489683;31;33537;-79
2022/10/24 04:20:18;;;;;;;23.77;14.87;;;;;;;15.97;82.71;100144.97;4477893;31;33971;-79
2022/10/24 04:22:46;;;;;;;23.70;14.05;;;;;;;15.84;83.52;100148.06;4489830;31;33983;-79
2022/10/24 04:25:15;;;;;;;25.77;14.75;;;;;;;15.89;82.97;100143.88;4476086;31;33601;-79
2022/10/24 04:27:42;;;;;;;25.12;14.70;;;;;;;15.72;83.82;100133.81;4483338;31;33360;-79
2022/10/24 04:30:12;;;;;;;26.65;15.00;;;;;;;15.85;83.08;100139.41;4494848;31;33775;-79
2022/10/24 04:32:43;;;;;;;23.92;14.55;;;;;;;16.11;81.61;100140.16;4468869;32;34274;-79
2022/10/24 04:35:12;;;;;;;25.58;14.95;;;;;;;15.65;83.74;100136.19;4470151;32;33728;-79
2022/10/24 04:37:40;;;;;;;21.75;13.38;;;;;;;15.75;83.37;100133.03;4479519;31;34247;-78
2022/10/24 04:40:08;;;;;;;21.50;14.63;;;;;;;15.89;82.53;100142.13;4484577;31;34798;-77
2022/10/24 04:42:36;;;;;;;26.35;14.65;;;;;;;15.81;82.78;100133.22;4491711;31;33920;-77
2022/10/24 04:45:03;;;;;;;19.55;13.48;;;;;;;16.10;81.27;100141.87;4487497;31;33665;-79
2022/10/24 04:47:31;;;;;;;21.58;13.98;;;;;;;15.86;82.20;100131.63;4484222;31;33399;-78
2022/10/24 04:49:59;;;;;;;23.45;13.45;;;;;;;16.26;80.51;100117.06;4488381;31;33490;-80
2022/10/24 04:52:26;;;;;;;24.80;14.52;;;;;;;15.90;81.85;100117.81;4491655;31;34581;-79
2022/10/24 04:54:53;;;;;;;24.98;14.63;;;;;;;15.94;82.08;100115.28;4492004;31;34743;-79
2022/10/24 04:57:21;;;;;;;26.48;16.25;;;;;;;15.50;83.73;100110.50;4477080;31;33789;-78
2022/10/24 04:59:48;;;;;;;27.75;16.65;;;;;;;15.45;84.59;100114.69;4481943;31;35541;-78
2022/10/24 05:02:16;;;;;;;31.70;17.30;;;;;;;15.52;84.00;100120.12;4470201;31;33807;-79
2022/10/24 05:04:44;;;;;;;29.80;16.65;;;;;;;15.27;85.35;100112.41;4476993;31;33674;-79
2022/10/24 05:07:11;;;;;;;27.25;16.92;;;;;;;15.77;83.11;100117.41;4480634;31;33499;-80
2022/10/24 05:09:38;;;;;;;30.58;17.55;;;;;;;15.79;82.33;100119.22;4481221;31;32583;-80
2022/10/24 05:12:06;;;;;;;31.08;17.73;;;;;;;15.86;81.77;100142.06;4476653;31;33779;-80
2022/10/24 05:14:33;;;;;;;29.80;16.87;;;;;;;15.99;81.61;100153.72;4476990;31;34057;-82
2022/10/24 05:17:01;;;;;;;34.25;16.98;;;;;;;15.65;82.32;100146.63;4482696;31;31899;-80
2022/10/24 05:19:29;;;;;;;33.15;18.30;;;;;;;15.63;83.21;100146.59;4469329;31;32581;-81
2022/10/24 05:21:56;;;;;;;28.33;17.42;;;;;;;15.58;82.89;100155.13;4487230;31;34681;-80
2022/10/24 05:24:23;;;;;;;30.08;17.02;;;;;;;16.01;81.09;100167.75;4487060;31;33984;-81
2022/10/24 05:26:51;;;;;;;32.55;17.87;;;;;;;15.82;81.57;100160.19;4482826;31;34624;-79
2022/10/24 05:29:18;;;;;;;31.52;17.30;;;;;;;15.92;81.11;100162.25;4479417;31;34607;-79
2022/10/24 05:31:46;;;;;;;28.08;16.25;;;;;;;16.07;80.50;100169.63;4481198;31;33894;-79
2022/10/24 05:34:13;;;;;;;27.50;15.68;;;;;;;16.13;80.29;100162.00;4481110;31;32765;-79
2022/10/24 05:36:41;;;;;;;26.70;16.60;;;;;;;16.02;80.57;100168.63;4474068;32;33454;-79
2022/10/24 05:39:08;;;;;;;27.92;16.37;;;;;;;16.34;79.32;100150.34;4471505;31;32271;-80
2022/10/24 05:41:36;;;;;;;28.90;17.60;;;;;;;16.44;78.43;100157.59;4476508;31;33129;-80
2022/10/24 05:44:03;;;;;;;30.30;16.67;;;;;;;16.27;78.74;100170.22;4479222;31;33940;-80
2022/10/24 05:46:31;;;;;;;29.58;17.75;;;;;;;16.02;80.37;100173.88;4478876;31;34353;-80
2022/10/24 05:48:59;;;;;;;27.65;16.55;;;;;;;15.91;80.82;100186.59;4481028;31;34442;-80
2022/10/24 05:51:26;;;;;;;32.95;17.42;;;;;;;16.15;79.55;100191.66;4484650;31;33936;-79
2022/10/24 05:53:53;;;;;;;30.77;17.95;;;;;;;16.14;80.49;100200.34;4483753;31;34843;-81
2022/10/24 05:56:24;;;;;;;34.00;17.27;;;;;;;16.11;80.18;100205.50;4483509;31;33420;-80
2022/10/24 05:58:51;;;;;;;31.55;17.23;;;;;;;16.03;80.50;100206.97;4481180;31;33820;-80
2022/10/24 06:01:19;;;;;;;33.85;17.90;;;;;;;16.20;80.09;100197.88;4488661;31;33731;-80
2022/10/24 06:03:47;;;;;;;34.63;17.95;;;;;;;16.08;80.47;100194.94;4460346;31;34347;-81
2022/10/24 06:06:14;;;;;;;30.73;17.05;;;;;;;16.06;80.46;100191.41;4480435;31;33406;-80
2022/10/24 06:08:42;;;;;;;32.05;16.87;;;;;;;16.27;79.68;100201.56;4485787;31;34348;-79
2022/10/24 06:11:10;;;;;;;31.02;17.62;;;;;;;16.58;78.31;100191.97;4478616;31;34034;-78
2022/10/24 06:13:38;;;;;;;33.33;17.80;;;;;;;16.22;79.72;100192.72;4472110;31;33700;-79
2022/10/24 06:16:06;;;;;;;34.47;17.90;;;;;;;16.02;80.85;100179.97;4477181;31;33607;-78
2022/10/24 06:18:34;;;;;;;32.80;16.98;;;;;;;16.49;78.64;100176.91;4472240;32;34748;-80
2022/10/24 06:21:04;;;;;;;34.53;17.62;;;;;;;16.40;78.91;100177.56;4469503;32;34429;-79
2022/10/24 06:23:32;;;;;;;31.25;18.77;;;;;;;16.19;79.87;100174.34;4480579;31;34453;-79
2022/10/24 06:25:59;;;;;;;41.60;20.70;;;;;;;16.19;80.26;100170.00;4483907;31;34415;-79
2022/10/24 06:28:27;;;;;;;45.12;21.58;;;;;;;15.87;82.26;100180.41;4473165;31;33752;-79
2022/10/24 06:30:54;;;;;;;42.47;21.75;;;;;;;15.64;83.37;100171.84;4476625;31;33914;-79
2022/10/24 06:33:22;;;;;;;46.35;22.70;;;;;;;15.51;84.61;100175.81;4476944;32;33447;-79
2022/10/24 06:35:49;;;;;;;44.13;20.85;;;;;;;15.38;85.23;100168.44;4480449;31;34480;-79
2022/10/24 06:38:16;;;;;;;48.67;22.70;;;;;;;15.31;85.47;100162.13;4481456;31;34051;-78
2022/10/24 06:40:44;;;;;;;42.17;20.80;;;;;;;15.69;83.99;100172.00;4479089;31;33943;-79
2022/10/24 06:43:11;;;;;;;47.65;23.02;;;;;;;15.62;83.93;100172.66;4491226;31;34006;-78
2022/10/24 06:45:39;;;;;;;40.85;21.40;;;;;;;15.58;84.50;100162.94;4482706;31;34009;-79
2022/10/24 06:48:06;;;;;;;46.88;23.75;;;;;;;15.47;84.63;100162.59;4497541;31;33929;-79
2022/10/24 06:50:35;;;;;;;43.63;22.20;;;;;;;15.31;85.56;100161.25;4482945;31;33943;-78
2022/10/24 06:53:03;;;;;;;46.60;23.23;;;;;;;15.27;85.96;100164.62;4480043;31;34529;-78
2022/10/24 06:55:30;;;;;;;54.15;24.05;;;;;;;15.56;84.82;100167.25;4475639;31;33506;-77
2022/10/24 06:57:58;;;;;;;49.47;22.98;;;;;;;14.99;87.91;100174.16;4475273;31;33464;-79
2022/10/24 07:00:25;;;;;;;53.28;25.25;;;;;;;15.37;86.18;100174.50;4481592;31;32469;-75
2022/10/24 07:02:58;;;;;;;52.17;25.12;;;;;;;15.59;85.22;100177.75;4480324;31;34009;-79
2022/10/24 07:05:25;;;;;;;49.88;23.80;;;;;;;15.29;86.20;100165.53;4479365;31;34373;-78
2022/10/24 07:07:53;;;;;;;51.00;23.15;;;;;;;15.27;86.85;100182.87;4485775;31;33899;-78
2022/10/24 07:10:21;;;;;;;50.90;24.58;;;;;;;15.56;84.73;100188.12;4498553;31;33823;-77
2022/10/24 07:12:48;;;;;;;50.90;23.62;;;;;;;15.78;84.15;100206.28;4493781;31;34306;-78
2022/10/24 07:15:15;;;;;;;53.00;24.08;;;;;;;15.56;84.39;100209.03;4486918;31;34217;-80
2022/10/24 07:17:44;;;;;;;50.72;23.67;;;;;;;15.78;83.49;100221.94;4478283;31;33693;-78
2022/10/24 07:20:12;;;;;;;48.60;23.67;;;;;;;15.82;83.04;100222.88;4479988;31;32787;-79
2022/10/24 07:22:40;;;;;;;52.33;23.73;;;;;;;15.92;82.44;100215.38;4487525;31;33893;-78
2022/10/24 07:25:08;;;;;;;53.55;24.87;;;;;;;16.11;81.76;100206.37;4485939;31;32123;-78
2022/10/24 07:27:36;;;;;;;49.92;24.10;;;;;;;15.71;83.43;100214.72;4495139;31;34647;-77
2022/10/24 07:30:04;;;;;;;46.58;23.05;;;;;;;16.03;82.42;100222.66;4488636;31;33776;-77
2022/10/24 07:32:32;;;;;;;48.53;23.75;;;;;;;16.26;81.19;100212.84;4491127;31;34701;-77
2022/10/24 07:35:00;;;;;;;53.20;23.42;;;;;;;16.42;79.75;100207.22;4482653;31;33997;-78
2022/10/24 07:37:27;;;;;;;46.05;23.80;;;;;;;16.32;80.09;100199.97;4477741;32;34246;-80
2022/10/24 07:39:55;;;;;;;54.03;23.23;;;;;;;16.75;78.76;100208.12;4480207;31;33832;-78
2022/10/24 07:42:22;;;;;;;51.60;23.38;;;;;;;16.04;81.79;100214.88;4482359;31;33857;-80
2022/10/24 07:44:50;;;;;;;47.90;21.02;;;;;;;16.21;81.22;100225.81;4482418;31;34262;-79
2022/10/24 07:47:17;;;;;;;45.33;21.95;;;;;;;15.89;83.11;100220.50;4485171;31;34058;-78
2022/10/24 07:49:45;;;;;;;47.90;22.25;;;;;;;15.97;82.95;100225.09;4482221;31;34042;-78
2022/10/24 07:52:12;;;;;;;47.70;23.27;;;;;;;16.24;81.62;100222.38;4486628;31;33618;-79
2022/10/24 07:54:40;;;;;;;42.47;21.20;;;;;;;16.09;82.05;100230.69;4483065;31;32025;-78
2022/10/24 07:57:07;;;;;;;50.50;23.40;;;;;;;16.26;81.42;100226.84;4489438;31;33895;-80
2022/10/24 07:59:34;;;;;;;44.13;20.85;;;;;;;16.63;79.58;100227.84;4486854;31;33712;-79
2022/10/24 08:02:13;;;;;;;44.92;21.92;;;;;;;16.36;80.76;100224.47;4474293;31;34723;-79
2022/10/24 08:04:41;;;;;;;50.58;21.33;;;;;;;16.54;79.78;100230.22;4476458;31;33418;-78
2022/10/24 08:07:13;;;;;;;45.50;22.48;;;;;;;16.40;80.32;100231.53;4475205;31;33975;-77
2022/10/24 08:09:43;;;;;;;46.80;21.58;;;;;;;16.57;79.35;100238.13;4481051;31;33806;-81
2022/10/24 08:12:11;;;;;;;50.38;23.73;;;;;;;16.81;78.27;100227.47;4489660;31;33947;-80
2022/10/24 08:14:39;;;;;;;50.72;23.38;;;;;;;16.89;77.93;100217.22;4489307;31;34338;-79
2022/10/24 08:17:07;;;;;;;49.95;24.00;;;;;;;16.91;78.05;100212.91;4477005;31;34623;-79
2022/10/24 08:19:40;;;;;;;47.55;22.40;;;;;;;16.30;80.29;100210.41;4477709;31;34740;-77
2022/10/24 08:22:11;;;;;;;58.00;24.75;;;;;;;16.38;80.40;100210.63;4475208;31;32227;-78
2022/10/24 08:24:38;;;;;;;53.50;23.20;;;;;;;16.47;80.00;100205.59;4481514;31;33381;-78
2022/10/24 08:27:06;;;;;;;50.78;22.58;;;;;;;16.31;80.46;100209.53;4481227;31;33693;-79
2022/10/24 08:29:34;;;;;;;50.63;22.87;;;;;;;16.46;79.96;100208.22;4474223;32;32958;-78
2022/10/24 08:32:01;;;;;;;52.92;22.25;;;;;;;16.51;79.63;100206.59;4485315;31;33963;-80
2022/10/24 08:34:29;;;;;;;53.92;23.48;;;;;;;16.48;79.43;100202.16;4493985;31;34102;-79
2022/10/24 08:36:56;;;;;;;50.80;22.62;;;;;;;16.21;80.92;100202.28;4474085;32;33949;-80
2022/10/24 08:39:25;;;;;;;45.08;21.12;;;;;;;16.39;80.12;100199.28;4484796;31;34685;-80
2022/10/24 08:41:56;;;;;;;43.17;20.67;;;;;;;15.99;82.17;100205.12;4479230;31;33289;-79
2022/10/24 08:44:39;;;;;;;43.03;21.12;;;;;;;15.77;83.05;100204.47;4478125;31;33508;-79
2022/10/24 08:47:28;;;;;;;46.20;20.02;;;;;;;15.91;82.80;100192.69;4485790;31;34469;-79
2022/10/24 08:50:08;;;;;;;45.60;21.33;;;;;;;15.98;82.49;100187.69;4475431;31;33924;-80
2022/10/24 08:52:48;;;;;;;42.47;19.75;;;;;;;15.69;83.83;100195.50;4478661;31;33906;-80
2022/10/24 08:55:27;;;;;;;45.35;22.08;;;;;;;15.91;82.57;100178.75;4479146;32;33268;-81
2022/10/24 08:58:30;;;;;;;47.08;21.48;;;;;;;15.96;82.79;100178.91;4479986;31;33775;-79
2022/10/24 09:00:59;;;;;;;49.55;22.00;;;;;;;16.39;80.91;100174.88;4477409;31;34562;-78
2022/10/24 09:03:35;;;;;;;46.95;21.60;;;;;;;16.15;81.56;100191.66;4473079;32;34123;-78
2022/10/24 09:06:28;;;;;;;48.78;21.15;;;;;;;16.24;81.09;100191.91;4475907;31;33561;-78
2022/10/24 09:08:57;;;;;;;46.17;21.95;;;;;;;16.30;80.82;100181.62;4478484;31;33977;-81
2022/10/24 09:11:40;;;;;;;45.08;21.00;;;;;;;16.57;79.95;100187.56;4480699;31;34029;-80
2022/10/24 09:14:13;;;;;;;48.92;22.75;;;;;;;16.56;80.13;100184.06;4498367;31;32014;-81
2022/10/24 09:16:43;;;;;;;45.35;20.95;;;;;;;16.67;79.48;100177.41;4493191;31;33300;-78
2022/10/24 09:19:14;;;;;;;43.22;20.60;;;;;;;16.74;79.01;100188.00;4472083;31;34609;-76
2022/10/24 09:21:42;;;;;;;44.45;21.60;;;;;;;16.65;79.57;100179.09;4477373;31;33741;-78
2022/10/24 09:24:21;;;;;;;52.10;23.08;;;;;;;17.21;77.09;100191.88;4478685;31;33639;-78
2022/10/24 09:26:49;;;;;;;43.08;20.40;;;;;;;17.13;77.68;100196.00;4474055;32;33567;-77
2022/10/24 09:29:16;;;;;;;50.78;22.55;;;;;;;17.00;77.95;100196.56;4475220;31;33896;-76
2022/10/24 09:31:48;;;;;;;44.38;21.48;;;;;;;16.99;77.76;100200.91;4476075;31;33902;-76
2022/10/24 09:34:16;;;;;;;45.63;20.75;;;;;;;17.24;76.76;100206.75;4482935;31;34063;-76
2022/10/24 09:36:43;;;;;;;41.63;20.65;;;;;;;16.90;77.93;100205.91;4490341;31;33311;-76
2022/10/24 09:39:31;;;;;;;46.75;21.55;;;;;;;16.83;78.47;100210.09;4482243;31;33918;-81
2022/10/24 09:42:00;;;;;;;44.80;20.85;;;;;;;16.78;78.79;100221.25;4485475;31;33912;-77
2022/10/24 09:44:30;;;;;;;47.65;20.90;;;;;;;16.78;78.87;100221.25;4481780;31;33686;-76
2022/10/24 09:46:57;;;;;;;40.63;21.00;;;;;;;17.11;77.45;100223.87;4482112;31;33366;-79
2022/10/24 09:49:32;;;;;;;38.33;20.42;;;;;;;17.04;77.18;100224.59;4490796;31;34008;-77
2022/10/24 09:52:14;;;;;;;46.35;21.83;;;;;;;16.56;79.59;100228.53;4484030;31;33921;-79
2022/10/24 09:54:43;;;;;;;41.25;20.77;;;;;;;17.10;77.44;100225.62;4481910;31;33975;-77
2022/10/24 09:57:10;;;;;;;44.03;20.52;;;;;;;17.00;77.72;100215.78;4484112;31;34605;-77
2022/10/24 10:00:02;;;;;;;43.33;20.95;;;;;;;16.75;78.94;100210.72;4485832;31;33641;-78
2022/10/24 10:02:36;;;;;;;39.47;18.52;;;;;;;16.90;78.49;100221.59;4482169;31;33793;-77
2022/10/24 10:05:04;;;;;;;40.53;20.30;;;;;;;17.02;78.35;100215.81;4484085;32;34517;-76
2022/10/24 10:07:37;;;;;;;36.72;19.30;;;;;;;16.89;79.48;100210.25;4497168;31;33664;-77
2022/10/24 10:10:17;;;;;;;41.63;20.08;;;;;;;17.08;78.43;100213.34;4477366;31;33644;-76
2022/10/24 10:12:54;;;;;;;36.72;18.60;;;;;;;17.32;77.49;100210.44;4482570;31;33693;-78
2022/10/24 10:15:29;;;;;;;39.33;19.45;;;;;;;17.35;77.33;100205.28;4481783;31;34019;-78
2022/10/24 10:18:02;;;;;;;37.00;19.30;;;;;;;17.54;76.35;100197.84;4494232;31;33021;-78
2022/10/24 10:20:35;;;;;;;36.47;18.30;;;;;;;17.49;76.73;100201.22;4480361;31;33716;-77
2022/10/24 10:23:16;;;;;;;37.53;18.98;;;;;;;17.63;76.46;100200.66;4472994;32;33806;-79
2022/10/24 10:25:43;;;;;;;37.47;18.80;;;;;;;17.68;76.49;100188.56;4477222;31;33749;-78
2022/10/24 10:28:19;;;;;;;38.42;18.60;;;;;;;17.75;76.31;100200.06;4494457;31;34117;-77
2022/10/24 10:30:54;;;;;;;37.92;17.58;;;;;;;17.83;76.25;100188.91;4480533;31;34582;-77
2022/10/24 10:33:52;;;;;;;37.75;18.30;;;;;;;17.79;76.26;100194.94;4475584;31;33675;-77
2022/10/24 10:36:24;;;;;;;36.00;18.75;;;;;;;17.92;75.96;100195.22;4483767;31;33674;-76
2022/10/24 10:39:29;;;;;;;32.05;18.40;;;;;;;17.91;75.87;100193.47;4470263;31;33449;-78
2022/10/24 10:42:02;;;;;;;32.45;17.62;;;;;;;17.90;76.09;100205.66;4482271;31;32243;-79
2022/10/24 10:44:38;;;;;;;37.25;17.85;;;;;;;18.18;75.01;100187.91;4475040;31;34650;-78
2022/10/24 10:47:37;;;;;;;37.45;19.65;;;;;;;18.09;75.49;100180.72;4489280;31;33292;-78
2022/10/24 10:50:38;;;;;;;37.83;19.37;;;;;;;18.15;75.69;100175.59;4478309;31;34479;-78
2022/10/24 10:53:30;;;;;;;37.25;17.42;;;;;;;18.14;75.94;100178.19;4449104;32;33850;-77
2022/10/24 10:56:20;;;;;;;30.08;17.23;;;;;;;18.23;75.65;100166.16;4479522;31;33705;-77
2022/10/24 10:59:02;;;;;;;38.08;17.45;;;;;;;17.99;75.58;100170.91;4478397;31;33743;-77
2022/10/24 11:01:52;;;;;;;36.67;18.17;;;;;;;17.76;76.46;100171.28;4480884;31;33279;-77
2022/10/24 11:04:41;;;;;;;27.13;15.70;;;;;;;17.90;75.98;100165.47;4476638;31;33845;-78
2022/10/24 11:07:22;;;;;;;28.90;15.27;;;;;;;18.21;74.60;100165.22;4493304;31;34537;-78
2022/10/24 11:09:51;;;;;;;32.58;15.13;;;;;;;18.22;73.88;100164.38;4474685;31;34526;-77
2022/10/24 11:12:25;;;;;;;30.40;16.00;;;;;;;17.96;74.89;100157.72;4474967;31;33267;-77
2022/10/24 11:15:08;;;;;;;27.27;15.80;;;;;;;18.33;73.29;100163.69;4473694;31;34414;-76
2022/10/24 11:17:58;;;;;;;28.75;16.58;;;;;;;18.31;73.22;100161.06;4471809;31;34845;-77
2022/10/24 11:20:28;;;;;;;32.47;17.70;;;;;;;18.47;72.50;100154.38;4473195;32;33482;-77
2022/10/24 11:23:01;;;;;;;32.65;17.55;;;;;;;18.51;72.15;100166.69;4476302;32;32877;-77
2022/10/24 11:25:30;;;;;;;31.17;17.20;;;;;;;18.49;72.51;100172.75;4470182;32;33721;-76
2022/10/24 11:28:06;;;;;;;32.20;16.40;;;;;;;18.27;72.97;100168.00;4479071;31;33824;-76